Bologna Guglielmo Marconi Airport

LIPE · Emilia-Romagna, 意大利

罗盘
风向 的 风向 360° Bologna Guglielmo Marconi Airport 12/30
风: 5 kt, 2 beaufort

2 kt

4 kt
改变
0 1.000 2.000 3.000 4.000 5.000
FEW 1.400 ft
METAR LIPE 040950Z 36005KT 9999 FEW014 18/16 Q1022

METAR Bologna Guglielmo Marconi Airport - LIPE/BLQ

Bologna Guglielmo Marconi Airport是Bologna,意大利中的大型机场。 该机场有一条跑道: 12/30. 该领域的国际民航组织标志是LIPE 它的国际航空运输协会代码是BLQ.

这份报告是针对2022年10月4日 11:50, 当地时间在Bologna Guglielmo Marconi Airport进行的。

机场观察

风向为360°,速度为5 kt。

可见度为10 km 或者更多。

有几云在1.400 ft的高度。 没有观察到天花板。

温度和风寒是18 °C。 露点为16 °C,相对湿度为88%。 海平面上的气压为1022 hPa (QNH)。

白天

今天,太阳从07:16升起,在18:50降落。 这适用于Bologna Guglielmo Marconi Airport,世界夏令时可能有所不同。 当地时间与世界标准时间之间的时差为+2 小时。 夏令时目前正在进行中。

公司介绍

我们没有关于这个机场的公司信息。

体会

到Vliegles.nl去找飞行课程,跳伞和其他飞行体验。 浏览页面,了解Bologna Guglielmo Marconi Airport附近所有可用的活动。 你也可以使用搜索功能来寻找你所在地附近的特定飞行课程、跳伞或其他飞行体验。

跑道

Id 标题 侧风 逆风 侧风 %
12/30 117°-297° 4 kt 2 kt 89 %

逆风成分最大的方向会被突出显示,并用于横风计算。 这并不一定意味着这个方向在使用。

乌云

1.400 ft FEW 几云

温度 & 天气

温度 18 °C
露点 16 °C
相对湿度 88%
Kp-index 2 (0-9)

白天

日出
07:16
中午
13:03
日落
18:50 (6h 39m)

小工具

你想在你的网站上有一个关于Bologna Guglielmo Marconi Airport的当前航空天气(METAR)的小部件吗?

</> 显示HTML代码

我们和第三方通过cookies跟踪您在我们网站上的上网行为。如果您继续,我们认为您同意我们的cookie政策。 了解更多